createdAt,value
2023-04-17T00:00:20.774Z,11.52
2023-04-17T00:02:47.681Z,11.47
2023-04-17T00:05:14.571Z,11.49
2023-04-17T00:07:41.518Z,11.31
2023-04-17T00:10:09.526Z,11.43
2023-04-17T00:12:36.292Z,11.46
2023-04-17T00:15:05.314Z,11.50
2023-04-17T00:17:32.134Z,11.55
2023-04-17T00:19:58.936Z,11.40
2023-04-17T00:22:25.630Z,11.46
2023-04-17T00:24:52.321Z,11.47
2023-04-17T00:27:19.010Z,11.41
2023-04-17T00:29:45.716Z,11.25
2023-04-17T00:32:12.564Z,11.28
2023-04-17T00:34:40.726Z,11.35
2023-04-17T00:37:07.366Z,11.38
2023-04-17T00:39:34.022Z,11.35
2023-04-17T00:42:00.931Z,11.39
2023-04-17T00:44:27.827Z,11.45
2023-04-17T00:46:54.591Z,11.46
2023-04-17T00:49:22.230Z,11.43
2023-04-17T00:51:49.650Z,11.39
2023-04-17T00:54:16.870Z,11.31
2023-04-17T00:56:44.205Z,11.33
2023-04-17T00:59:13.508Z,11.32
2023-04-17T01:01:40.585Z,11.26
2023-04-17T01:04:08.610Z,11.25
2023-04-17T01:06:35.742Z,11.29
2023-04-17T01:09:03.020Z,11.23
2023-04-17T01:11:29.737Z,11.20
2023-04-17T01:13:56.411Z,11.06
2023-04-17T01:16:23.563Z,11.13
2023-04-17T01:18:50.387Z,11.07
2023-04-17T01:21:17.134Z,11.11
2023-04-17T01:23:43.890Z,11.17
2023-04-17T01:26:13.081Z,11.26
2023-04-17T01:28:39.798Z,11.33
2023-04-17T01:31:06.654Z,11.30
2023-04-17T01:33:33.436Z,11.31
2023-04-17T01:36:00.096Z,11.12
2023-04-17T01:38:26.749Z,11.08
2023-04-17T01:40:53.432Z,11.09
2023-04-17T01:43:20.105Z,11.27
2023-04-17T01:45:46.812Z,11.29
2023-04-17T01:48:13.537Z,11.31
2023-04-17T01:50:40.227Z,11.31
2023-04-17T01:53:06.904Z,11.34
2023-04-17T01:55:33.565Z,11.27
2023-04-17T01:58:00.440Z,11.19
2023-04-17T02:00:27.350Z,11.17
2023-04-17T02:02:54.098Z,11.13
2023-04-17T02:05:21.106Z,11.12
2023-04-17T02:07:50.568Z,11.19
2023-04-17T02:10:17.318Z,11.25
2023-04-17T02:12:43.971Z,11.23
2023-04-17T02:15:11.186Z,11.22
2023-04-17T02:17:37.985Z,11.28
2023-04-17T02:20:07.515Z,11.17
2023-04-17T02:22:34.191Z,11.22
2023-04-17T02:25:01.015Z,11.19
2023-04-17T02:27:27.810Z,11.16
2023-04-17T02:29:54.490Z,11.09
2023-04-17T02:32:21.225Z,10.87
2023-04-17T02:34:47.932Z,10.95
2023-04-17T02:37:14.594Z,10.85
2023-04-17T02:39:41.353Z,10.89
2023-04-17T02:42:08.040Z,10.95
2023-04-17T02:44:34.702Z,10.99
2023-04-17T02:47:01.523Z,10.98
2023-04-17T02:49:28.219Z,10.86
2023-04-17T02:51:54.901Z,10.93
2023-04-17T02:54:21.810Z,10.86
2023-04-17T02:56:48.493Z,10.89
2023-04-17T02:59:15.147Z,10.88
2023-04-17T03:01:42.451Z,10.86
2023-04-17T03:04:09.371Z,10.82
2023-04-17T03:06:36.165Z,10.92
2023-04-17T03:09:03.261Z,10.92
2023-04-17T03:11:29.920Z,10.85
2023-04-17T03:13:56.738Z,10.84
2023-04-17T03:16:23.488Z,10.69
2023-04-17T03:18:50.230Z,10.62
2023-04-17T03:21:16.955Z,10.55
2023-04-17T03:23:44.088Z,10.42
2023-04-17T03:26:10.847Z,10.44
2023-04-17T03:28:37.740Z,10.50
2023-04-17T03:31:04.464Z,10.59
2023-04-17T03:33:31.193Z,10.67
2023-04-17T03:35:57.851Z,10.82
2023-04-17T03:38:24.546Z,10.82
2023-04-17T03:40:51.252Z,10.82
2023-04-17T03:43:17.937Z,10.87
2023-04-17T03:45:44.738Z,10.77
2023-04-17T03:48:11.457Z,10.78
2023-04-17T03:50:38.427Z,10.82
2023-04-17T03:53:05.138Z,10.78
2023-04-17T03:55:31.865Z,10.78
2023-04-17T03:57:58.526Z,10.71
2023-04-17T04:00:26.219Z,10.67
2023-04-17T04:02:53.438Z,10.74
2023-04-17T04:05:20.618Z,10.78
2023-04-17T04:07:47.322Z,10.74
2023-04-17T04:10:14.050Z,10.77
2023-04-17T04:12:40.748Z,10.63
2023-04-17T04:15:08.278Z,10.69
2023-04-17T04:17:35.061Z,10.60
2023-04-17T04:20:01.808Z,10.60
2023-04-17T04:22:29.733Z,10.60
2023-04-17T04:24:56.592Z,10.68
2023-04-17T04:27:23.302Z,10.68
2023-04-17T04:29:50.024Z,10.61
2023-04-17T04:32:17.126Z,10.67
2023-04-17T04:34:44.854Z,10.76
2023-04-17T04:37:16.043Z,10.73
2023-04-17T04:39:43.430Z,10.62
2023-04-17T04:42:10.360Z,10.55
2023-04-17T04:44:37.712Z,10.49
2023-04-17T04:47:04.545Z,10.50
2023-04-17T04:49:31.398Z,10.52
2023-04-17T04:51:58.105Z,10.61
2023-04-17T04:54:24.826Z,10.68
2023-04-17T04:56:51.643Z,10.75
2023-04-17T04:59:18.339Z,10.63
2023-04-17T05:01:45.155Z,10.29
2023-04-17T05:04:12.003Z,10.27
2023-04-17T05:06:41.716Z,10.35
2023-04-17T05:09:08.482Z,10.47
2023-04-17T05:11:35.216Z,10.61
2023-04-17T05:14:01.896Z,10.59
2023-04-17T05:16:28.762Z,10.62
2023-04-17T05:18:55.734Z,10.55
2023-04-17T05:21:22.438Z,10.52
2023-04-17T05:23:49.138Z,10.52
2023-04-17T05:26:16.018Z,10.68
2023-04-17T05:28:45.532Z,10.82
2023-04-17T05:31:12.342Z,10.70
2023-04-17T05:33:39.306Z,10.64
2023-04-17T05:36:06.889Z,10.55
2023-04-17T05:38:33.804Z,10.57
2023-04-17T05:41:01.957Z,10.60
2023-04-17T05:43:28.662Z,10.47
2023-04-17T05:45:55.609Z,10.48
2023-04-17T05:48:23.061Z,10.58
2023-04-17T05:50:49.953Z,10.51
2023-04-17T05:53:16.897Z,10.52
2023-04-17T05:55:43.655Z,10.62
2023-04-17T05:58:22.984Z,10.63
2023-04-17T06:00:51.931Z,10.68
2023-04-17T06:03:19.476Z,10.78
2023-04-17T06:05:47.259Z,10.92
2023-04-17T06:08:14.127Z,11.03
2023-04-17T06:10:40.869Z,11.03
2023-04-17T06:13:07.800Z,11.09
2023-04-17T06:15:34.606Z,11.08
2023-04-17T06:18:01.339Z,11.02
2023-04-17T06:20:28.030Z,10.71
2023-04-17T06:22:54.848Z,10.72
2023-04-17T06:25:21.645Z,10.80
2023-04-17T06:27:48.525Z,10.76
2023-04-17T06:30:15.294Z,10.84
2023-04-17T06:32:43.538Z,10.80
2023-04-17T06:35:13.453Z,10.67
2023-04-17T06:37:40.171Z,10.75
2023-04-17T06:40:07.692Z,10.80
2023-04-17T06:42:35.602Z,10.82
2023-04-17T06:45:02.344Z,10.77
2023-04-17T06:47:29.185Z,10.78
2023-04-17T06:49:58.076Z,10.90
2023-04-17T06:52:24.809Z,10.98
2023-04-17T06:54:51.530Z,10.99
2023-04-17T06:57:18.197Z,11.02
2023-04-17T06:59:44.884Z,11.07
2023-04-17T07:02:11.609Z,11.02
2023-04-17T07:04:38.439Z,11.02
2023-04-17T07:07:05.144Z,10.91
2023-04-17T07:09:31.935Z,11.02
2023-04-17T07:11:58.632Z,11.07
2023-04-17T07:14:25.325Z,11.20
2023-04-17T07:16:52.132Z,11.24
2023-04-17T07:19:18.875Z,11.30
2023-04-17T07:21:45.783Z,11.39
2023-04-17T07:24:12.486Z,11.29
2023-04-17T07:26:40.629Z,11.23
2023-04-17T07:29:07.370Z,11.18
2023-04-17T07:31:34.154Z,11.20
2023-04-17T07:34:00.929Z,11.27
2023-04-17T07:36:28.714Z,11.37
2023-04-17T07:38:55.784Z,11.29
2023-04-17T07:41:22.590Z,11.31
2023-04-17T07:43:49.269Z,11.17
2023-04-17T07:46:16.228Z,10.98
2023-04-17T07:48:42.934Z,11.08
2023-04-17T07:51:09.678Z,11.17
2023-04-17T07:53:37.517Z,11.19
2023-04-17T07:56:04.627Z,11.24
2023-04-17T07:58:32.151Z,11.25
2023-04-17T08:00:58.886Z,11.37
2023-04-17T08:03:26.167Z,11.44
2023-04-17T08:05:54.289Z,11.56
2023-04-17T08:08:23.047Z,11.65
2023-04-17T08:10:50.859Z,11.78
2023-04-17T08:13:17.563Z,11.73
2023-04-17T08:15:45.846Z,11.83
2023-04-17T08:18:12.653Z,11.87
2023-04-17T08:20:40.195Z,11.89
2023-04-17T08:23:07.380Z,11.94
2023-04-17T08:25:34.153Z,11.97
2023-04-17T08:28:00.869Z,11.99
2023-04-17T08:30:27.555Z,12.00
2023-04-17T08:32:55.746Z,11.94
2023-04-17T08:35:22.685Z,11.84
2023-04-17T08:37:49.422Z,11.75
2023-04-17T08:40:17.421Z,11.78
2023-04-17T08:42:44.589Z,11.88
2023-04-17T08:45:12.728Z,11.85
2023-04-17T08:47:40.868Z,12.00
2023-04-17T08:50:15.262Z,11.97
2023-04-17T08:52:43.124Z,12.24
2023-04-17T08:55:11.715Z,12.39
2023-04-17T08:57:54.513Z,12.54
2023-04-17T09:00:35.352Z,12.65
2023-04-17T09:03:04.180Z,12.84
2023-04-17T09:05:36.834Z,13.04
2023-04-17T09:08:26.298Z,13.03
2023-04-17T09:10:54.607Z,13.01
2023-04-17T09:13:25.147Z,13.19
2023-04-17T09:16:05.640Z,13.20
2023-04-17T09:18:33.825Z,13.22
2023-04-17T09:21:02.112Z,13.26
2023-04-17T09:23:30.834Z,13.26
2023-04-17T09:26:14.318Z,13.45
2023-04-17T09:28:41.545Z,13.46
2023-04-17T09:31:26.587Z,13.40
2023-04-17T09:34:12.152Z,13.72
2023-04-17T09:36:44.287Z,13.82
2023-04-17T09:39:20.741Z,13.83
2023-04-17T09:41:47.800Z,13.62
2023-04-17T09:44:28.790Z,13.76
2023-04-17T09:46:56.247Z,13.87
2023-04-17T09:49:40.651Z,13.92
2023-04-17T09:52:07.466Z,13.99
2023-04-17T09:54:38.425Z,14.08
2023-04-17T09:57:09.443Z,13.95
2023-04-17T09:59:48.139Z,13.55
2023-04-17T10:02:17.547Z,13.55
2023-04-17T10:04:45.479Z,13.61
2023-04-17T10:07:18.916Z,13.77
2023-04-17T10:09:46.079Z,13.88
2023-04-17T10:12:17.758Z,14.00
2023-04-17T10:14:49.035Z,13.94
2023-04-17T10:17:31.753Z,14.10
2023-04-17T10:20:23.697Z,14.29
2023-04-17T10:22:56.553Z,14.29
2023-04-17T10:25:29.828Z,14.50
2023-04-17T10:27:59.057Z,14.82
2023-04-17T10:30:52.379Z,15.00
2023-04-17T10:33:22.157Z,15.12
2023-04-17T10:35:49.246Z,15.11
2023-04-17T10:38:16.503Z,14.92
2023-04-17T10:40:44.088Z,15.60
2023-04-17T10:43:19.680Z,16.34
2023-04-17T10:46:05.672Z,16.47
2023-04-17T10:48:52.943Z,16.15
2023-04-17T10:51:29.332Z,16.16
2023-04-17T10:53:56.035Z,16.57
2023-04-17T10:56:35.945Z,16.81
2023-04-17T10:59:07.476Z,17.19
2023-04-17T11:01:37.305Z,17.20
2023-04-17T11:04:04.689Z,17.52
2023-04-17T11:06:32.694Z,17.81
2023-04-17T11:09:00.511Z,17.67
2023-04-17T11:11:42.986Z,17.48
2023-04-17T11:14:16.884Z,17.57
2023-04-17T11:16:45.278Z,17.64
2023-04-17T11:19:23.657Z,17.83
2023-04-17T11:21:52.515Z,17.57
2023-04-17T11:24:30.083Z,17.42
2023-04-17T11:27:00.020Z,17.39
2023-04-17T11:29:27.417Z,17.72
2023-04-17T11:31:56.115Z,18.14
2023-04-17T11:34:23.142Z,18.09
2023-04-17T11:36:54.959Z,18.47
2023-04-17T11:39:23.393Z,18.76
2023-04-17T11:41:51.730Z,18.95
2023-04-17T11:44:20.573Z,18.71
2023-04-17T11:46:51.843Z,18.12
2023-04-17T11:49:26.683Z,17.91
2023-04-17T11:52:00.101Z,17.78
2023-04-17T11:54:31.331Z,17.75
2023-04-17T11:57:02.890Z,17.57
2023-04-17T11:59:40.571Z,17.59
2023-04-17T12:02:08.685Z,17.48
2023-04-17T12:04:36.986Z,17.24
2023-04-17T12:07:06.058Z,17.30
2023-04-17T12:09:34.339Z,16.99
2023-04-17T12:12:04.051Z,17.42
2023-04-17T12:14:30.976Z,17.95
2023-04-17T12:16:57.740Z,18.37
2023-04-17T12:19:26.931Z,18.63
2023-04-17T12:21:54.685Z,18.73
2023-04-17T12:24:24.303Z,18.80
2023-04-17T12:26:51.894Z,18.71
2023-04-17T12:29:24.069Z,18.85
2023-04-17T12:31:59.588Z,18.86
2023-04-17T12:34:27.835Z,18.87
2023-04-17T12:36:54.981Z,18.97
2023-04-17T12:39:21.693Z,19.00
2023-04-17T12:41:48.368Z,19.07
2023-04-17T12:44:15.243Z,19.09
2023-04-17T12:46:42.283Z,19.13
2023-04-17T12:49:09.145Z,19.27
2023-04-17T12:51:38.136Z,19.37
2023-04-17T12:54:05.299Z,19.61
2023-04-17T12:56:32.258Z,19.51
2023-04-17T12:59:01.335Z,19.38
2023-04-17T13:01:29.798Z,19.43
2023-04-17T13:03:57.080Z,19.43
2023-04-17T13:06:24.237Z,19.65
2023-04-17T13:08:50.978Z,19.62
2023-04-17T13:11:17.763Z,19.63
2023-04-17T13:16:54.092Z,18.74
2023-04-17T13:19:20.828Z,18.88
2023-04-17T13:21:47.814Z,19.09
2023-04-17T13:24:17.473Z,19.36
2023-04-17T13:26:44.742Z,19.58
2023-04-17T13:29:11.640Z,19.60
2023-04-17T13:31:38.506Z,19.10
2023-04-17T13:34:05.284Z,19.29
2023-04-17T13:36:32.053Z,19.30
2023-04-17T13:38:58.732Z,18.98
2023-04-17T13:41:25.905Z,19.39
2023-04-17T13:43:53.937Z,19.64
2023-04-17T13:46:20.887Z,19.57
2023-04-17T13:48:48.441Z,19.70
2023-04-17T13:51:15.283Z,19.37
2023-04-17T13:53:41.976Z,19.29
2023-04-17T13:56:08.884Z,19.12
2023-04-17T13:58:35.774Z,19.31
2023-04-17T14:01:02.527Z,19.66
2023-04-17T14:03:29.333Z,19.87
2023-04-17T14:05:56.850Z,19.82
2023-04-17T14:08:23.954Z,19.42
2023-04-17T14:10:50.625Z,18.90
2023-04-17T14:13:17.313Z,18.60
2023-04-17T14:15:44.000Z,18.57
2023-04-17T14:18:10.742Z,18.05
2023-04-17T14:20:37.526Z,17.76
2023-04-17T14:23:04.202Z,17.72
2023-04-17T14:25:30.966Z,17.63
2023-04-17T14:27:57.791Z,17.61
2023-04-17T14:30:24.643Z,17.53
2023-04-17T14:32:53.612Z,17.39
2023-04-17T14:35:21.092Z,17.58
2023-04-17T14:37:47.836Z,17.84
2023-04-17T14:40:14.667Z,18.34
2023-04-17T14:42:53.448Z,19.01
2023-04-17T14:45:20.739Z,19.34
2023-04-17T14:47:47.486Z,19.68
2023-04-17T14:50:14.187Z,19.96
2023-04-17T14:52:40.975Z,20.13
2023-04-17T14:55:08.126Z,20.41
2023-04-17T14:57:34.792Z,20.40
2023-04-17T15:00:01.523Z,20.22
2023-04-17T15:02:28.347Z,19.23
2023-04-17T15:04:55.183Z,18.77
2023-04-17T15:07:21.933Z,18.19
2023-04-17T15:09:48.592Z,17.76
2023-04-17T15:12:15.282Z,17.50
2023-04-17T15:14:42.017Z,17.40
2023-04-17T15:17:09.328Z,17.62
2023-04-17T15:19:36.008Z,17.63
2023-04-17T15:22:02.723Z,17.68
2023-04-17T15:24:29.482Z,18.05
2023-04-17T15:26:56.692Z,18.59
2023-04-17T15:29:23.640Z,19.13
2023-04-17T15:31:52.774Z,19.52
2023-04-17T15:34:19.738Z,19.46
2023-04-17T15:36:47.381Z,18.99
2023-04-17T15:39:14.310Z,18.76
2023-04-17T15:41:41.380Z,18.28
2023-04-17T15:44:08.107Z,18.36
2023-04-17T15:46:35.090Z,18.70
2023-04-17T15:49:08.910Z,18.63
2023-04-17T15:51:36.261Z,18.75
2023-04-17T15:54:03.062Z,18.70
2023-04-17T15:56:29.842Z,18.55
2023-04-17T15:58:56.630Z,18.61
2023-04-17T16:01:23.529Z,18.56
2023-04-17T16:03:50.454Z,18.40
2023-04-17T16:06:17.318Z,18.34
2023-04-17T16:08:43.996Z,18.48
2023-04-17T16:11:11.667Z,18.54
2023-04-17T16:13:38.727Z,18.52
2023-04-17T16:16:08.599Z,18.34
2023-04-17T16:18:35.418Z,18.10
2023-04-17T16:21:03.295Z,17.80
2023-04-17T16:23:30.227Z,17.65
2023-04-17T16:25:56.913Z,17.78
2023-04-17T16:28:26.020Z,17.98
2023-04-17T16:30:52.846Z,18.17
2023-04-17T16:33:21.036Z,18.21
2023-04-17T16:35:47.872Z,18.36
2023-04-17T16:38:14.640Z,18.55
2023-04-17T16:40:41.418Z,18.75
2023-04-17T16:43:09.251Z,18.85
2023-04-17T16:45:39.391Z,18.86
2023-04-17T16:48:09.342Z,18.85
2023-04-17T16:50:36.310Z,18.68
2023-04-17T16:53:03.458Z,18.68
2023-04-17T16:55:30.659Z,18.67
2023-04-17T16:58:00.528Z,18.62
2023-04-17T17:00:27.545Z,18.57
2023-04-17T17:02:54.426Z,18.42
2023-04-17T17:05:21.833Z,18.44
2023-04-17T17:07:48.916Z,18.33
2023-04-17T17:10:15.964Z,18.26
2023-04-17T17:12:42.940Z,18.18
2023-04-17T17:15:10.128Z,18.12
2023-04-17T17:17:36.939Z,17.99
2023-04-17T17:20:03.939Z,17.82
2023-04-17T17:22:30.836Z,17.54
2023-04-17T17:24:57.609Z,17.50
2023-04-17T17:27:24.438Z,17.17
2023-04-17T17:29:54.858Z,17.00
2023-04-17T17:32:22.202Z,16.93
2023-04-17T17:34:49.032Z,16.78
2023-04-17T17:37:15.862Z,16.79
2023-04-17T17:39:42.608Z,16.84
2023-04-17T17:42:09.789Z,16.81
2023-04-17T17:44:36.479Z,16.81
2023-04-17T17:47:04.654Z,16.76
2023-04-17T17:49:33.214Z,16.70
2023-04-17T17:51:59.958Z,16.68
2023-04-17T17:54:26.721Z,16.56
2023-04-17T17:56:53.416Z,16.52
2023-04-17T17:59:21.634Z,16.51
2023-04-17T18:01:48.421Z,16.46
2023-04-17T18:04:15.708Z,16.42
2023-04-17T18:06:43.176Z,16.27
2023-04-17T18:09:10.015Z,16.24
2023-04-17T18:11:37.338Z,16.30
2023-04-17T18:14:04.240Z,16.24
2023-04-17T18:16:32.953Z,16.23
2023-04-17T18:19:02.148Z,16.16
2023-04-17T18:21:29.393Z,16.17
2023-04-17T18:23:56.658Z,16.18
2023-04-17T18:26:23.758Z,16.17
2023-04-17T18:28:50.870Z,16.07
2023-04-17T18:31:17.775Z,15.92
2023-04-17T18:33:44.564Z,15.97
2023-04-17T18:36:11.450Z,15.98
2023-04-17T18:38:38.228Z,16.04
2023-04-17T18:41:05.112Z,16.05
2023-04-17T18:43:31.786Z,16.06
2023-04-17T18:45:58.718Z,16.02
2023-04-17T18:48:25.451Z,15.96
2023-04-17T18:50:52.321Z,15.96
2023-04-17T18:53:19.079Z,15.87
2023-04-17T18:55:45.847Z,15.80
2023-04-17T18:58:12.686Z,15.81
2023-04-17T19:00:39.533Z,15.82
2023-04-17T19:03:06.623Z,15.77
2023-04-17T19:05:33.549Z,15.69
2023-04-17T19:08:00.342Z,15.66
2023-04-17T19:10:27.137Z,15.58
2023-04-17T19:12:53.861Z,15.51
2023-04-17T19:15:21.219Z,15.45
2023-04-17T19:17:48.223Z,15.42
2023-04-17T19:20:16.879Z,15.49
2023-04-17T19:22:43.677Z,15.47
2023-04-17T19:25:10.830Z,15.43
2023-04-17T19:27:37.886Z,15.19
2023-04-17T19:30:05.189Z,15.02
2023-04-17T19:32:32.045Z,15.09
2023-04-17T19:34:59.108Z,15.06
2023-04-17T19:37:26.006Z,15.06
2023-04-17T19:39:56.237Z,15.02
2023-04-17T19:42:23.560Z,15.05
2023-04-17T19:44:50.547Z,15.07
2023-04-17T19:47:17.279Z,15.07
2023-04-17T19:49:45.200Z,15.00
2023-04-17T19:52:12.266Z,15.01
2023-04-17T19:54:39.222Z,14.71
2023-04-17T19:57:06.165Z,14.62
2023-04-17T19:59:33.185Z,14.71
2023-04-17T20:02:00.573Z,14.67
2023-04-17T20:04:28.495Z,14.70
2023-04-17T20:06:56.108Z,14.88
2023-04-17T20:09:23.123Z,14.88
2023-04-17T20:11:49.971Z,14.84
2023-04-17T20:14:19.614Z,14.87
2023-04-17T20:16:46.828Z,14.87
2023-04-17T20:19:17.028Z,14.86
2023-04-17T20:21:44.576Z,14.81
2023-04-17T20:24:13.177Z,14.64
2023-04-17T20:26:40.008Z,14.51
2023-04-17T20:29:07.323Z,14.55
2023-04-17T20:31:37.301Z,14.54
2023-04-17T20:34:04.016Z,14.59
2023-04-17T20:36:38.188Z,14.41
2023-04-17T20:39:05.933Z,14.20
2023-04-17T20:41:33.073Z,14.20
2023-04-17T20:44:00.759Z,14.23
2023-04-17T20:46:28.990Z,14.18
2023-04-17T20:48:56.430Z,14.11
2023-04-17T20:51:27.637Z,14.14
2023-04-17T20:53:54.661Z,14.06
2023-04-17T20:56:22.332Z,14.10
2023-04-17T20:58:49.110Z,13.93
2023-04-17T21:01:16.820Z,14.03
2023-04-17T21:03:44.327Z,14.14
2023-04-17T21:06:11.333Z,14.17
2023-04-17T21:08:38.345Z,14.15
2023-04-17T21:11:05.236Z,13.99
2023-04-17T21:13:32.368Z,13.93
2023-04-17T21:15:59.136Z,13.93
2023-04-17T21:18:25.961Z,13.96
2023-04-17T21:20:52.871Z,14.01
2023-04-17T21:23:19.636Z,13.97
2023-04-17T21:25:46.512Z,13.99
2023-04-17T21:28:13.286Z,14.01
2023-04-17T21:30:40.110Z,13.87
2023-04-17T21:33:07.172Z,13.89
2023-04-17T21:35:35.598Z,13.97
2023-04-17T21:38:02.760Z,13.89
2023-04-17T21:40:33.416Z,13.87
2023-04-17T21:43:00.980Z,13.78
2023-04-17T21:45:27.812Z,13.78
2023-04-17T21:47:54.670Z,13.87
2023-04-17T21:50:21.386Z,13.91
2023-04-17T21:52:48.096Z,13.77
2023-04-17T21:55:14.902Z,13.76
2023-04-17T21:57:41.567Z,13.72
2023-04-17T22:00:12.675Z,13.74
2023-04-17T22:02:39.621Z,13.70
2023-04-17T22:05:06.611Z,13.65
2023-04-17T22:07:40.704Z,13.70
2023-04-17T22:10:14.434Z,13.68
2023-04-17T22:12:41.187Z,13.60
2023-04-17T22:15:08.544Z,13.60
2023-04-17T22:17:35.304Z,13.62
2023-04-17T22:20:02.353Z,13.55
2023-04-17T22:22:29.066Z,13.53
2023-04-17T22:24:55.816Z,13.48
2023-04-17T22:27:22.686Z,13.52
2023-04-17T22:29:49.416Z,13.56
2023-04-17T22:32:16.194Z,13.56
2023-04-17T22:34:47.831Z,13.44
2023-04-17T22:37:14.562Z,13.42
2023-04-17T22:39:41.385Z,13.32
2023-04-17T22:42:08.061Z,13.31
2023-04-17T22:44:34.887Z,13.36
2023-04-17T22:47:01.706Z,13.33
2023-04-17T22:49:28.396Z,13.37
2023-04-17T22:51:55.114Z,13.29
2023-04-17T22:54:23.267Z,13.27
2023-04-17T22:56:50.200Z,13.28
2023-04-17T22:59:16.903Z,13.18
2023-04-17T23:01:43.619Z,13.20
2023-04-17T23:04:10.637Z,13.16
2023-04-17T23:06:37.517Z,13.13
2023-04-17T23:09:05.140Z,13.05
2023-04-17T23:11:32.733Z,12.84
2023-04-17T23:13:59.775Z,12.88
2023-04-17T23:16:26.657Z,12.87
2023-04-17T23:18:53.387Z,12.83
2023-04-17T23:21:20.079Z,12.74
2023-04-17T23:23:48.160Z,12.77
2023-04-17T23:26:15.466Z,12.77
2023-04-17T23:28:42.241Z,12.75
2023-04-17T23:31:08.995Z,12.73
2023-04-17T23:33:35.814Z,12.54
2023-04-17T23:36:02.666Z,12.57
2023-04-17T23:38:29.438Z,12.47
2023-04-17T23:40:56.207Z,12.48
2023-04-17T23:43:22.902Z,12.40
2023-04-17T23:45:49.598Z,12.41
2023-04-17T23:48:16.497Z,12.42
2023-04-17T23:50:44.270Z,12.41
2023-04-17T23:53:11.073Z,12.37
2023-04-17T23:55:37.745Z,12.31
2023-04-17T23:58:04.403Z,12.36
